sensor_id;sensor_type;location;lat;lon;timestamp;P1;durP1;ratioP1;P2;durP2;ratioP2
51451;SDS011;37521;52.020;-1.740;2024-02-28T00:00:46;1.85;;;1.58;;
51451;SDS011;37521;52.020;-1.740;2024-02-28T00:03:15;3.65;;;2.00;;
51451;SDS011;37521;52.020;-1.740;2024-02-28T00:05:44;4.65;;;2.40;;
51451;SDS011;37521;52.020;-1.740;2024-02-28T00:08:13;5.07;;;2.45;;
51451;SDS011;37521;52.020;-1.740;2024-02-28T00:10:41;3.10;;;2.00;;
51451;SDS011;37521;52.020;-1.740;2024-02-28T00:13:12;2.53;;;2.33;;
51451;SDS011;37521;52.020;-1.740;2024-02-28T00:15:40;5.20;;;3.10;;
51451;SDS011;37521;52.020;-1.740;2024-02-28T00:18:09;6.65;;;2.38;;
51451;SDS011;37521;52.020;-1.740;2024-02-28T00:20:38;4.50;;;2.45;;
51451;SDS011;37521;52.020;-1.740;2024-02-28T00:23:07;2.40;;;2.17;;
51451;SDS011;37521;52.020;-1.740;2024-02-28T00:25:36;3.40;;;1.90;;
51451;SDS011;37521;52.020;-1.740;2024-02-28T00:28:04;2.05;;;1.85;;
51451;SDS011;37521;52.020;-1.740;2024-02-28T00:30:35;2.22;;;2.03;;
51451;SDS011;37521;52.020;-1.740;2024-02-28T00:33:03;2.85;;;1.48;;
51451;SDS011;37521;52.020;-1.740;2024-02-28T00:35:33;3.67;;;1.80;;
51451;SDS011;37521;52.020;-1.740;2024-02-28T00:38:03;2.30;;;2.10;;
51451;SDS011;37521;52.020;-1.740;2024-02-28T00:40:32;2.78;;;2.25;;
51451;SDS011;37521;52.020;-1.740;2024-02-28T00:43:01;3.80;;;2.58;;
51451;SDS011;37521;52.020;-1.740;2024-02-28T00:45:30;6.38;;;3.05;;
51451;SDS011;37521;52.020;-1.740;2024-02-28T00:48:00;3.97;;;3.10;;
51451;SDS011;37521;52.020;-1.740;2024-02-28T00:50:29;6.50;;;3.35;;
51451;SDS011;37521;52.020;-1.740;2024-02-28T00:52:57;5.95;;;3.30;;
51451;SDS011;37521;52.020;-1.740;2024-02-28T00:55:26;4.43;;;2.50;;
51451;SDS011;37521;52.020;-1.740;2024-02-28T00:57:55;2.13;;;1.92;;
51451;SDS011;37521;52.020;-1.740;2024-02-28T01:00:23;4.10;;;2.05;;
51451;SDS011;37521;52.020;-1.740;2024-02-28T01:02:52;3.17;;;1.48;;
51451;SDS011;37521;52.020;-1.740;2024-02-28T01:05:22;4.20;;;2.28;;
51451;SDS011;37521;52.020;-1.740;2024-02-28T01:07:51;3.10;;;2.40;;
51451;SDS011;37521;52.020;-1.740;2024-02-28T01:10:20;4.57;;;1.65;;
51451;SDS011;37521;52.020;-1.740;2024-02-28T01:12:48;3.00;;;0.98;;
51451;SDS011;37521;52.020;-1.740;2024-02-28T01:15:17;1.63;;;1.08;;
51451;SDS011;37521;52.020;-1.740;2024-02-28T01:17:46;0.80;;;0.80;;
51451;SDS011;37521;52.020;-1.740;2024-02-28T01:20:15;0.82;;;0.55;;
51451;SDS011;37521;52.020;-1.740;2024-02-28T01:22:45;1.33;;;1.00;;
51451;SDS011;37521;52.020;-1.740;2024-02-28T01:25:14;2.40;;;1.40;;
51451;SDS011;37521;52.020;-1.740;2024-02-28T01:27:43;3.10;;;1.13;;
51451;SDS011;37521;52.020;-1.740;2024-02-28T01:30:12;1.75;;;0.90;;
51451;SDS011;37521;52.020;-1.740;2024-02-28T01:32:41;1.10;;;0.80;;
51451;SDS011;37521;52.020;-1.740;2024-02-28T01:35:10;1.77;;;0.98;;
51451;SDS011;37521;52.020;-1.740;2024-02-28T01:37:39;1.90;;;1.58;;
51451;SDS011;37521;52.020;-1.740;2024-02-28T01:40:10;1.35;;;1.17;;
51451;SDS011;37521;52.020;-1.740;2024-02-28T01:42:39;3.22;;;1.80;;
51451;SDS011;37521;52.020;-1.740;2024-02-28T01:45:09;3.45;;;1.15;;
51451;SDS011;37521;52.020;-1.740;2024-02-28T01:47:42;4.88;;;1.08;;
51451;SDS011;37521;52.020;-1.740;2024-02-28T01:50:11;5.10;;;0.95;;
51451;SDS011;37521;52.020;-1.740;2024-02-28T01:52:40;0.75;;;0.57;;
51451;SDS011;37521;52.020;-1.740;2024-02-28T01:55:11;3.60;;;0.93;;
51451;SDS011;37521;52.020;-1.740;2024-02-28T01:57:40;3.40;;;0.73;;
51451;SDS011;37521;52.020;-1.740;2024-02-28T02:00:09;1.13;;;0.65;;
51451;SDS011;37521;52.020;-1.740;2024-02-28T02:02:40;1.90;;;0.88;;
51451;SDS011;37521;52.020;-1.740;2024-02-28T02:05:09;2.63;;;0.50;;
51451;SDS011;37521;52.020;-1.740;2024-02-28T02:07:38;0.52;;;0.47;;
51451;SDS011;37521;52.020;-1.740;2024-02-28T02:10:08;2.00;;;0.80;;
51451;SDS011;37521;52.020;-1.740;2024-02-28T02:12:40;2.00;;;0.80;;
51451;SDS011;37521;52.020;-1.740;2024-02-28T02:15:09;2.95;;;0.68;;
51451;SDS011;37521;52.020;-1.740;2024-02-28T02:17:38;0.45;;;0.38;;
51451;SDS011;37521;52.020;-1.740;2024-02-28T02:20:07;3.60;;;0.40;;
51451;SDS011;37521;52.020;-1.740;2024-02-28T02:22:41;1.53;;;0.67;;
51451;SDS011;37521;52.020;-1.740;2024-02-28T02:25:10;0.90;;;0.47;;
51451;SDS011;37521;52.020;-1.740;2024-02-28T02:27:38;1.25;;;0.73;;
51451;SDS011;37521;52.020;-1.740;2024-02-28T02:30:07;0.40;;;0.40;;
51451;SDS011;37521;52.020;-1.740;2024-02-28T02:32:37;1.13;;;0.70;;
51451;SDS011;37521;52.020;-1.740;2024-02-28T02:35:05;1.80;;;0.47;;
51451;SDS011;37521;52.020;-1.740;2024-02-28T02:37:34;1.92;;;0.50;;
51451;SDS011;37521;52.020;-1.740;2024-02-28T02:40:05;1.30;;;0.57;;
51451;SDS011;37521;52.020;-1.740;2024-02-28T02:42:36;0.60;;;0.27;;
51451;SDS011;37521;52.020;-1.740;2024-02-28T02:45:05;3.05;;;0.80;;
51451;SDS011;37521;52.020;-1.740;2024-02-28T02:47:34;2.67;;;0.60;;
51451;SDS011;37521;52.020;-1.740;2024-02-28T02:50:03;0.55;;;0.55;;
51451;SDS011;37521;52.020;-1.740;2024-02-28T02:52:33;0.43;;;0.43;;
51451;SDS011;37521;52.020;-1.740;2024-02-28T02:55:02;1.98;;;0.43;;
51451;SDS011;37521;52.020;-1.740;2024-02-28T02:57:33;1.38;;;0.55;;
51451;SDS011;37521;52.020;-1.740;2024-02-28T03:00:01;1.67;;;0.90;;
51451;SDS011;37521;52.020;-1.740;2024-02-28T03:02:31;3.45;;;0.80;;
51451;SDS011;37521;52.020;-1.740;2024-02-28T03:04:59;0.35;;;0.25;;
51451;SDS011;37521;52.020;-1.740;2024-02-28T03:07:28;0.45;;;0.45;;
51451;SDS011;37521;52.020;-1.740;2024-02-28T03:09:57;1.85;;;0.93;;
51451;SDS011;37521;52.020;-1.740;2024-02-28T03:12:25;0.40;;;0.40;;
51451;SDS011;37521;52.020;-1.740;2024-02-28T03:14:56;0.50;;;0.50;;
51451;SDS011;37521;52.020;-1.740;2024-02-28T03:17:24;2.25;;;0.73;;
51451;SDS011;37521;52.020;-1.740;2024-02-28T03:19:53;1.13;;;0.77;;
51451;SDS011;37521;52.020;-1.740;2024-02-28T03:22:23;2.28;;;0.77;;
51451;SDS011;37521;52.020;-1.740;2024-02-28T03:24:51;1.38;;;0.80;;
51451;SDS011;37521;52.020;-1.740;2024-02-28T03:27:20;1.13;;;0.43;;
51451;SDS011;37521;52.020;-1.740;2024-02-28T03:29:49;1.00;;;0.70;;
51451;SDS011;37521;52.020;-1.740;2024-02-28T03:32:19;1.45;;;0.52;;
51451;SDS011;37521;52.020;-1.740;2024-02-28T03:34:48;2.42;;;0.63;;
51451;SDS011;37521;52.020;-1.740;2024-02-28T03:37:16;2.13;;;0.65;;
51451;SDS011;37521;52.020;-1.740;2024-02-28T03:39:45;0.57;;;0.50;;
51451;SDS011;37521;52.020;-1.740;2024-02-28T03:42:14;0.95;;;0.82;;
51451;SDS011;37521;52.020;-1.740;2024-02-28T03:44:43;1.25;;;0.82;;
51451;SDS011;37521;52.020;-1.740;2024-02-28T03:47:11;0.75;;;0.65;;
51451;SDS011;37521;52.020;-1.740;2024-02-28T03:49:41;1.77;;;0.65;;
51451;SDS011;37521;52.020;-1.740;2024-02-28T03:52:11;3.08;;;0.85;;
51451;SDS011;37521;52.020;-1.740;2024-02-28T03:54:41;1.02;;;0.43;;
51451;SDS011;37521;52.020;-1.740;2024-02-28T03:57:10;1.00;;;0.63;;
51451;SDS011;37521;52.020;-1.740;2024-02-28T03:59:40;1.05;;;0.98;;
51451;SDS011;37521;52.020;-1.740;2024-02-28T04:02:09;2.22;;;0.60;;
51451;SDS011;37521;52.020;-1.740;2024-02-28T04:04:38;1.02;;;0.68;;
51451;SDS011;37521;52.020;-1.740;2024-02-28T04:07:08;0.50;;;0.32;;
51451;SDS011;37521;52.020;-1.740;2024-02-28T04:09:37;4.97;;;0.98;;
51451;SDS011;37521;52.020;-1.740;2024-02-28T04:12:06;1.23;;;0.63;;
51451;SDS011;37521;52.020;-1.740;2024-02-28T04:14:37;2.78;;;1.20;;
51451;SDS011;37521;52.020;-1.740;2024-02-28T04:17:06;1.67;;;0.43;;
51451;SDS011;37521;52.020;-1.740;2024-02-28T04:19:34;2.13;;;0.82;;
51451;SDS011;37521;52.020;-1.740;2024-02-28T04:22:04;1.67;;;0.95;;
51451;SDS011;37521;52.020;-1.740;2024-02-28T04:24:34;2.67;;;2.00;;
51451;SDS011;37521;52.020;-1.740;2024-02-28T04:27:03;1.45;;;0.93;;
51451;SDS011;37521;52.020;-1.740;2024-02-28T04:29:32;0.88;;;0.60;;
51451;SDS011;37521;52.020;-1.740;2024-02-28T04:32:01;0.73;;;0.60;;
51451;SDS011;37521;52.020;-1.740;2024-02-28T04:34:30;0.45;;;0.45;;
51451;SDS011;37521;52.020;-1.740;2024-02-28T04:36:59;1.92;;;1.27;;
51451;SDS011;37521;52.020;-1.740;2024-02-28T04:39:27;1.20;;;0.82;;
51451;SDS011;37521;52.020;-1.740;2024-02-28T04:41:57;1.40;;;1.05;;
51451;SDS011;37521;52.020;-1.740;2024-02-28T04:44:26;1.00;;;0.90;;
51451;SDS011;37521;52.020;-1.740;2024-02-28T04:46:55;0.77;;;0.45;;
51451;SDS011;37521;52.020;-1.740;2024-02-28T04:49:23;2.22;;;1.50;;
51451;SDS011;37521;52.020;-1.740;2024-02-28T04:51:52;1.83;;;1.40;;
51451;SDS011;37521;52.020;-1.740;2024-02-28T04:54:21;1.77;;;0.90;;
51451;SDS011;37521;52.020;-1.740;2024-02-28T04:56:50;0.57;;;0.50;;
51451;SDS011;37521;52.020;-1.740;2024-02-28T04:59:20;0.90;;;0.68;;
51451;SDS011;37521;52.020;-1.740;2024-02-28T05:01:49;2.85;;;0.95;;
51451;SDS011;37521;52.020;-1.740;2024-02-28T05:04:18;4.15;;;1.38;;
51451;SDS011;37521;52.020;-1.740;2024-02-28T05:06:47;3.03;;;1.38;;
51451;SDS011;37521;52.020;-1.740;2024-02-28T05:09:16;3.05;;;1.33;;
51451;SDS011;37521;52.020;-1.740;2024-02-28T05:11:45;1.38;;;1.27;;
51451;SDS011;37521;52.020;-1.740;2024-02-28T05:14:14;1.48;;;0.85;;
51451;SDS011;37521;52.020;-1.740;2024-02-28T05:16:44;0.95;;;0.68;;
51451;SDS011;37521;52.020;-1.740;2024-02-28T05:19:13;1.25;;;0.73;;
51451;SDS011;37521;52.020;-1.740;2024-02-28T05:21:44;1.35;;;1.20;;
51451;SDS011;37521;52.020;-1.740;2024-02-28T05:24:15;1.20;;;0.85;;
51451;SDS011;37521;52.020;-1.740;2024-02-28T05:26:43;1.50;;;1.40;;
51451;SDS011;37521;52.020;-1.740;2024-02-28T05:29:12;1.77;;;1.60;;
51451;SDS011;37521;52.020;-1.740;2024-02-28T05:31:41;2.08;;;1.40;;
51451;SDS011;37521;52.020;-1.740;2024-02-28T05:34:11;1.92;;;1.58;;
51451;SDS011;37521;52.020;-1.740;2024-02-28T05:36:40;1.40;;;1.20;;
51451;SDS011;37521;52.020;-1.740;2024-02-28T05:39:09;1.95;;;1.45;;
51451;SDS011;37521;52.020;-1.740;2024-02-28T05:41:37;1.23;;;1.13;;
51451;SDS011;37521;52.020;-1.740;2024-02-28T05:44:06;2.30;;;1.13;;
51451;SDS011;37521;52.020;-1.740;2024-02-28T05:46:35;0.85;;;0.85;;
51451;SDS011;37521;52.020;-1.740;2024-02-28T05:49:04;1.25;;;1.00;;
51451;SDS011;37521;52.020;-1.740;2024-02-28T05:51:34;1.27;;;0.80;;
51451;SDS011;37521;52.020;-1.740;2024-02-28T05:54:03;4.28;;;1.48;;
51451;SDS011;37521;52.020;-1.740;2024-02-28T05:56:32;3.22;;;1.15;;
51451;SDS011;37521;52.020;-1.740;2024-02-28T05:59:01;1.73;;;0.95;;
51451;SDS011;37521;52.020;-1.740;2024-02-28T06:01:30;3.35;;;1.80;;
51451;SDS011;37521;52.020;-1.740;2024-02-28T06:03:59;1.27;;;1.02;;
51451;SDS011;37521;52.020;-1.740;2024-02-28T06:06:28;4.43;;;1.92;;
51451;SDS011;37521;52.020;-1.740;2024-02-28T06:08:58;2.53;;;0.82;;
51451;SDS011;37521;52.020;-1.740;2024-02-28T06:11:27;2.30;;;1.20;;
51451;SDS011;37521;52.020;-1.740;2024-02-28T06:13:56;0.82;;;0.82;;
51451;SDS011;37521;52.020;-1.740;2024-02-28T06:16:25;1.17;;;1.00;;
51451;SDS011;37521;52.020;-1.740;2024-02-28T06:18:53;1.13;;;1.02;;
51451;SDS011;37521;52.020;-1.740;2024-02-28T06:21:22;1.20;;;1.15;;
51451;SDS011;37521;52.020;-1.740;2024-02-28T06:23:51;1.58;;;1.00;;
51451;SDS011;37521;52.020;-1.740;2024-02-28T06:26:22;1.50;;;1.40;;
51451;SDS011;37521;52.020;-1.740;2024-02-28T06:28:51;3.25;;;1.50;;
51451;SDS011;37521;52.020;-1.740;2024-02-28T06:31:20;2.30;;;1.17;;
51451;SDS011;37521;52.020;-1.740;2024-02-28T06:33:48;1.77;;;1.17;;
51451;SDS011;37521;52.020;-1.740;2024-02-28T06:36:17;1.70;;;1.17;;
51451;SDS011;37521;52.020;-1.740;2024-02-28T06:38:46;2.28;;;1.10;;
51451;SDS011;37521;52.020;-1.740;2024-02-28T06:41:14;1.75;;;1.15;;
51451;SDS011;37521;52.020;-1.740;2024-02-28T06:43:45;1.58;;;1.00;;
51451;SDS011;37521;52.020;-1.740;2024-02-28T06:46:14;1.95;;;1.48;;
51451;SDS011;37521;52.020;-1.740;2024-02-28T06:48:42;2.15;;;1.77;;
51451;SDS011;37521;52.020;-1.740;2024-02-28T06:51:11;3.33;;;1.98;;
51451;SDS011;37521;52.020;-1.740;2024-02-28T06:53:43;4.75;;;1.88;;
51451;SDS011;37521;52.020;-1.740;2024-02-28T06:56:12;4.20;;;1.95;;
51451;SDS011;37521;52.020;-1.740;2024-02-28T06:58:41;3.58;;;1.17;;
51451;SDS011;37521;52.020;-1.740;2024-02-28T07:01:11;3.35;;;1.60;;
51451;SDS011;37521;52.020;-1.740;2024-02-28T07:03:40;2.80;;;2.03;;
51451;SDS011;37521;52.020;-1.740;2024-02-28T07:06:09;4.72;;;1.92;;
51451;SDS011;37521;52.020;-1.740;2024-02-28T07:08:39;4.68;;;1.85;;
51451;SDS011;37521;52.020;-1.740;2024-02-28T07:11:12;3.75;;;1.73;;
51451;SDS011;37521;52.020;-1.740;2024-02-28T07:13:42;6.30;;;1.85;;
51451;SDS011;37521;52.020;-1.740;2024-02-28T07:16:12;4.20;;;1.80;;
51451;SDS011;37521;52.020;-1.740;2024-02-28T07:18:41;2.90;;;2.03;;
51451;SDS011;37521;52.020;-1.740;2024-02-28T07:21:10;2.67;;;1.50;;
51451;SDS011;37521;52.020;-1.740;2024-02-28T07:23:39;2.55;;;1.58;;
51451;SDS011;37521;52.020;-1.740;2024-02-28T07:26:08;5.63;;;1.88;;
51451;SDS011;37521;52.020;-1.740;2024-02-28T07:28:52;7.50;;;2.78;;
51451;SDS011;37521;52.020;-1.740;2024-02-28T07:31:23;4.65;;;2.47;;
51451;SDS011;37521;52.020;-1.740;2024-02-28T07:33:51;4.40;;;2.67;;
51451;SDS011;37521;52.020;-1.740;2024-02-28T07:36:20;6.65;;;2.60;;
51451;SDS011;37521;52.020;-1.740;2024-02-28T07:38:49;5.28;;;2.15;;
51451;SDS011;37521;52.020;-1.740;2024-02-28T07:41:19;4.95;;;2.38;;
51451;SDS011;37521;52.020;-1.740;2024-02-28T07:43:48;3.28;;;1.58;;
51451;SDS011;37521;52.020;-1.740;2024-02-28T07:46:17;6.63;;;2.35;;
51451;SDS011;37521;52.020;-1.740;2024-02-28T07:48:47;5.55;;;2.20;;
51451;SDS011;37521;52.020;-1.740;2024-02-28T07:51:16;5.55;;;2.80;;
51451;SDS011;37521;52.020;-1.740;2024-02-28T07:53:46;4.88;;;2.63;;
51451;SDS011;37521;52.020;-1.740;2024-02-28T07:56:17;3.88;;;2.42;;
51451;SDS011;37521;52.020;-1.740;2024-02-28T07:58:47;3.35;;;1.90;;
51451;SDS011;37521;52.020;-1.740;2024-02-28T08:01:16;3.15;;;2.50;;
51451;SDS011;37521;52.020;-1.740;2024-02-28T08:03:45;10.30;;;3.20;;
51451;SDS011;37521;52.020;-1.740;2024-02-28T08:06:15;3.15;;;2.08;;
51451;SDS011;37521;52.020;-1.740;2024-02-28T08:08:44;5.15;;;3.03;;
51451;SDS011;37521;52.020;-1.740;2024-02-28T08:11:14;6.43;;;3.45;;
51451;SDS011;37521;52.020;-1.740;2024-02-28T08:13:43;4.80;;;2.30;;
51451;SDS011;37521;52.020;-1.740;2024-02-28T08:16:11;4.47;;;2.47;;
51451;SDS011;37521;52.020;-1.740;2024-02-28T08:18:40;3.85;;;2.55;;
51451;SDS011;37521;52.020;-1.740;2024-02-28T08:21:09;4.55;;;2.03;;
51451;SDS011;37521;52.020;-1.740;2024-02-28T08:23:39;3.00;;;2.17;;
51451;SDS011;37521;52.020;-1.740;2024-02-28T08:26:08;4.03;;;2.42;;
51451;SDS011;37521;52.020;-1.740;2024-02-28T08:28:37;4.90;;;2.28;;
51451;SDS011;37521;52.020;-1.740;2024-02-28T08:31:06;5.68;;;2.50;;
51451;SDS011;37521;52.020;-1.740;2024-02-28T08:33:35;3.92;;;1.70;;
51451;SDS011;37521;52.020;-1.740;2024-02-28T08:36:04;3.63;;;1.92;;
51451;SDS011;37521;52.020;-1.740;2024-02-28T08:38:33;4.75;;;2.38;;
51451;SDS011;37521;52.020;-1.740;2024-02-28T08:41:07;4.47;;;2.38;;
51451;SDS011;37521;52.020;-1.740;2024-02-28T08:43:37;3.75;;;2.22;;
51451;SDS011;37521;52.020;-1.740;2024-02-28T08:46:06;3.97;;;1.88;;
51451;SDS011;37521;52.020;-1.740;2024-02-28T08:48:35;5.03;;;2.65;;
51451;SDS011;37521;52.020;-1.740;2024-02-28T08:51:05;2.33;;;1.75;;
51451;SDS011;37521;52.020;-1.740;2024-02-28T08:53:33;4.85;;;2.40;;
51451;SDS011;37521;52.020;-1.740;2024-02-28T08:56:03;6.88;;;2.85;;
51451;SDS011;37521;52.020;-1.740;2024-02-28T08:58:34;4.07;;;2.33;;
51451;SDS011;37521;52.020;-1.740;2024-02-28T09:01:04;2.63;;;2.00;;
51451;SDS011;37521;52.020;-1.740;2024-02-28T09:03:33;3.50;;;2.15;;
51451;SDS011;37521;52.020;-1.740;2024-02-28T09:06:02;6.75;;;2.83;;
51451;SDS011;37521;52.020;-1.740;2024-02-28T09:08:32;6.03;;;2.47;;
51451;SDS011;37521;52.020;-1.740;2024-02-28T09:11:00;6.03;;;2.83;;
51451;SDS011;37521;52.020;-1.740;2024-02-28T09:13:31;5.82;;;2.30;;
51451;SDS011;37521;52.020;-1.740;2024-02-28T09:16:01;4.75;;;2.50;;
51451;SDS011;37521;52.020;-1.740;2024-02-28T09:18:31;5.43;;;2.25;;
51451;SDS011;37521;52.020;-1.740;2024-02-28T09:21:00;6.80;;;2.38;;
51451;SDS011;37521;52.020;-1.740;2024-02-28T09:23:29;4.38;;;2.38;;
51451;SDS011;37521;52.020;-1.740;2024-02-28T09:25:58;3.95;;;2.42;;
51451;SDS011;37521;52.020;-1.740;2024-02-28T09:28:26;5.65;;;2.45;;
51451;SDS011;37521;52.020;-1.740;2024-02-28T09:30:55;7.88;;;2.92;;
51451;SDS011;37521;52.020;-1.740;2024-02-28T09:33:25;4.18;;;2.05;;
51451;SDS011;37521;52.020;-1.740;2024-02-28T09:35:54;6.57;;;2.45;;
51451;SDS011;37521;52.020;-1.740;2024-02-28T09:38:23;6.25;;;2.38;;
51451;SDS011;37521;52.020;-1.740;2024-02-28T09:40:51;3.53;;;2.33;;
51451;SDS011;37521;52.020;-1.740;2024-02-28T09:43:22;5.43;;;2.45;;
51451;SDS011;37521;52.020;-1.740;2024-02-28T09:45:58;4.88;;;2.70;;
51451;SDS011;37521;52.020;-1.740;2024-02-28T09:48:30;9.15;;;3.53;;
51451;SDS011;37521;52.020;-1.740;2024-02-28T09:51:00;7.55;;;2.75;;
51451;SDS011;37521;52.020;-1.740;2024-02-28T09:53:29;5.93;;;2.60;;
51451;SDS011;37521;52.020;-1.740;2024-02-28T09:55:57;6.35;;;3.05;;
51451;SDS011;37521;52.020;-1.740;2024-02-28T09:58:27;5.15;;;2.78;;
51451;SDS011;37521;52.020;-1.740;2024-02-28T10:00:59;7.60;;;3.00;;
51451;SDS011;37521;52.020;-1.740;2024-02-28T10:03:32;15.02;;;3.33;;
51451;SDS011;37521;52.020;-1.740;2024-02-28T10:06:02;9.52;;;3.03;;
51451;SDS011;37521;52.020;-1.740;2024-02-28T10:08:32;9.80;;;2.75;;
51451;SDS011;37521;52.020;-1.740;2024-02-28T10:11:01;8.48;;;3.75;;
51451;SDS011;37521;52.020;-1.740;2024-02-28T10:13:30;9.32;;;3.17;;
51451;SDS011;37521;52.020;-1.740;2024-02-28T10:15:59;6.13;;;2.30;;
51451;SDS011;37521;52.020;-1.740;2024-02-28T10:18:30;13.10;;;4.28;;
51451;SDS011;37521;52.020;-1.740;2024-02-28T10:21:01;6.65;;;3.03;;
51451;SDS011;37521;52.020;-1.740;2024-02-28T10:23:30;11.70;;;3.42;;
51451;SDS011;37521;52.020;-1.740;2024-02-28T10:26:00;7.80;;;3.33;;
51451;SDS011;37521;52.020;-1.740;2024-02-28T10:28:30;9.23;;;3.05;;
51451;SDS011;37521;52.020;-1.740;2024-02-28T10:30:59;7.75;;;2.75;;
51451;SDS011;37521;52.020;-1.740;2024-02-28T10:33:28;8.40;;;2.63;;
51451;SDS011;37521;52.020;-1.740;2024-02-28T10:35:59;6.40;;;3.10;;
51451;SDS011;37521;52.020;-1.740;2024-02-28T10:38:28;6.07;;;2.22;;
51451;SDS011;37521;52.020;-1.740;2024-02-28T10:41:00;7.13;;;2.90;;
51451;SDS011;37521;52.020;-1.740;2024-02-28T10:43:30;7.78;;;2.58;;
51451;SDS011;37521;52.020;-1.740;2024-02-28T10:46:01;6.22;;;2.70;;
51451;SDS011;37521;52.020;-1.740;2024-02-28T10:48:50;8.40;;;2.78;;
51451;SDS011;37521;52.020;-1.740;2024-02-28T10:51:24;3.53;;;2.10;;
51451;SDS011;37521;52.020;-1.740;2024-02-28T10:53:58;7.75;;;2.25;;
51451;SDS011;37521;52.020;-1.740;2024-02-28T10:56:36;4.55;;;1.95;;
51451;SDS011;37521;52.020;-1.740;2024-02-28T10:59:06;7.57;;;2.40;;
51451;SDS011;37521;52.020;-1.740;2024-02-28T11:01:38;4.45;;;2.20;;
51451;SDS011;37521;52.020;-1.740;2024-02-28T11:04:11;5.28;;;2.45;;
51451;SDS011;37521;52.020;-1.740;2024-02-28T11:06:49;5.85;;;2.00;;
51451;SDS011;37521;52.020;-1.740;2024-02-28T11:09:19;9.40;;;2.30;;
51451;SDS011;37521;52.020;-1.740;2024-02-28T11:11:51;6.40;;;2.45;;
51451;SDS011;37521;52.020;-1.740;2024-02-28T11:14:21;5.90;;;1.83;;
51451;SDS011;37521;52.020;-1.740;2024-02-28T11:16:59;4.63;;;2.35;;
51451;SDS011;37521;52.020;-1.740;2024-02-28T11:19:28;6.68;;;2.22;;
51451;SDS011;37521;52.020;-1.740;2024-02-28T11:22:00;3.63;;;2.17;;
51451;SDS011;37521;52.020;-1.740;2024-02-28T11:24:31;4.80;;;1.85;;
51451;SDS011;37521;52.020;-1.740;2024-02-28T11:27:04;8.32;;;1.98;;
51451;SDS011;37521;52.020;-1.740;2024-02-28T11:29:34;3.20;;;2.17;;
51451;SDS011;37521;52.020;-1.740;2024-02-28T11:32:03;6.00;;;2.22;;
51451;SDS011;37521;52.020;-1.740;2024-02-28T11:34:33;6.72;;;2.05;;
51451;SDS011;37521;52.020;-1.740;2024-02-28T11:37:03;4.13;;;1.55;;
51451;SDS011;37521;52.020;-1.740;2024-02-28T11:39:32;4.82;;;2.17;;
51451;SDS011;37521;52.020;-1.740;2024-02-28T11:42:08;4.32;;;2.03;;
51451;SDS011;37521;52.020;-1.740;2024-02-28T11:44:38;7.13;;;2.38;;
51451;SDS011;37521;52.020;-1.740;2024-02-28T11:47:08;9.73;;;2.13;;
51451;SDS011;37521;52.020;-1.740;2024-02-28T11:49:37;3.72;;;1.52;;
51451;SDS011;37521;52.020;-1.740;2024-02-28T11:52:07;5.75;;;1.40;;
51451;SDS011;37521;52.020;-1.740;2024-02-28T11:54:37;2.90;;;1.15;;
51451;SDS011;37521;52.020;-1.740;2024-02-28T11:57:07;9.10;;;2.00;;
51451;SDS011;37521;52.020;-1.740;2024-02-28T11:59:41;9.65;;;1.92;;
51451;SDS011;37521;52.020;-1.740;2024-02-28T12:02:13;4.65;;;2.03;;
51451;SDS011;37521;52.020;-1.740;2024-02-28T12:04:42;2.45;;;1.38;;
51451;SDS011;37521;52.020;-1.740;2024-02-28T12:07:12;4.28;;;1.77;;
51451;SDS011;37521;52.020;-1.740;2024-02-28T12:09:41;7.85;;;2.28;;
51451;SDS011;37521;52.020;-1.740;2024-02-28T12:12:11;2.17;;;1.70;;
51451;SDS011;37521;52.020;-1.740;2024-02-28T12:14:41;5.15;;;1.90;;
51451;SDS011;37521;52.020;-1.740;2024-02-28T12:17:10;3.35;;;1.38;;
51451;SDS011;37521;52.020;-1.740;2024-02-28T12:19:39;2.92;;;1.60;;
51451;SDS011;37521;52.020;-1.740;2024-02-28T12:22:07;7.97;;;2.15;;
51451;SDS011;37521;52.020;-1.740;2024-02-28T12:24:38;7.10;;;1.70;;
51451;SDS011;37521;52.020;-1.740;2024-02-28T12:27:06;1.33;;;0.93;;
51451;SDS011;37521;52.020;-1.740;2024-02-28T12:29:35;3.10;;;1.95;;
51451;SDS011;37521;52.020;-1.740;2024-02-28T12:32:04;3.67;;;1.38;;
51451;SDS011;37521;52.020;-1.740;2024-02-28T12:34:33;3.47;;;1.50;;
51451;SDS011;37521;52.020;-1.740;2024-02-28T12:37:02;5.28;;;1.67;;
51451;SDS011;37521;52.020;-1.740;2024-02-28T12:39:32;2.92;;;1.55;;
51451;SDS011;37521;52.020;-1.740;2024-02-28T12:42:03;3.50;;;1.45;;
51451;SDS011;37521;52.020;-1.740;2024-02-28T12:44:32;4.20;;;1.55;;
51451;SDS011;37521;52.020;-1.740;2024-02-28T12:47:01;8.88;;;1.35;;
51451;SDS011;37521;52.020;-1.740;2024-02-28T12:49:30;8.55;;;1.50;;
51451;SDS011;37521;52.020;-1.740;2024-02-28T12:51:59;3.97;;;1.40;;
51451;SDS011;37521;52.020;-1.740;2024-02-28T12:54:28;4.97;;;1.52;;
51451;SDS011;37521;52.020;-1.740;2024-02-28T12:56:56;7.93;;;1.30;;
51451;SDS011;37521;52.020;-1.740;2024-02-28T12:59:27;4.00;;;1.33;;
51451;SDS011;37521;52.020;-1.740;2024-02-28T13:01:56;4.07;;;1.27;;
51451;SDS011;37521;52.020;-1.740;2024-02-28T13:04:25;1.05;;;0.82;;
51451;SDS011;37521;52.020;-1.740;2024-02-28T13:06:57;6.53;;;1.67;;
51451;SDS011;37521;52.020;-1.740;2024-02-28T13:09:26;2.10;;;1.10;;
51451;SDS011;37521;52.020;-1.740;2024-02-28T13:11:55;4.43;;;1.15;;
51451;SDS011;37521;52.020;-1.740;2024-02-28T13:14:24;2.30;;;1.48;;
51451;SDS011;37521;52.020;-1.740;2024-02-28T13:17:00;1.63;;;1.20;;
51451;SDS011;37521;52.020;-1.740;2024-02-28T13:19:37;2.70;;;0.82;;
51451;SDS011;37521;52.020;-1.740;2024-02-28T13:22:11;2.53;;;1.52;;
51451;SDS011;37521;52.020;-1.740;2024-02-28T13:24:46;2.63;;;0.85;;
51451;SDS011;37521;52.020;-1.740;2024-02-28T13:27:15;2.42;;;1.08;;
51451;SDS011;37521;52.020;-1.740;2024-02-28T13:29:44;3.17;;;1.27;;
51451;SDS011;37521;52.020;-1.740;2024-02-28T13:32:14;4.03;;;1.05;;
51451;SDS011;37521;52.020;-1.740;2024-02-28T13:34:43;0.60;;;0.60;;
51451;SDS011;37521;52.020;-1.740;2024-02-28T13:37:15;3.55;;;1.23;;
51451;SDS011;37521;52.020;-1.740;2024-02-28T13:39:44;0.63;;;0.57;;
51451;SDS011;37521;52.020;-1.740;2024-02-28T13:42:13;3.45;;;0.60;;
51451;SDS011;37521;52.020;-1.740;2024-02-28T13:44:42;1.33;;;0.60;;
51451;SDS011;37521;52.020;-1.740;2024-02-28T13:47:11;1.33;;;0.95;;
51451;SDS011;37521;52.020;-1.740;2024-02-28T13:49:42;1.63;;;0.90;;
51451;SDS011;37521;52.020;-1.740;2024-02-28T13:52:11;0.65;;;0.63;;
51451;SDS011;37521;52.020;-1.740;2024-02-28T13:54:40;1.23;;;0.70;;
51451;SDS011;37521;52.020;-1.740;2024-02-28T13:57:09;1.80;;;0.60;;
51451;SDS011;37521;52.020;-1.740;2024-02-28T13:59:37;0.50;;;0.50;;
51451;SDS011;37521;52.020;-1.740;2024-02-28T14:02:06;2.55;;;0.98;;
51451;SDS011;37521;52.020;-1.740;2024-02-28T14:04:39;1.35;;;0.60;;
51451;SDS011;37521;52.020;-1.740;2024-02-28T14:07:11;1.90;;;0.43;;
51451;SDS011;37521;52.020;-1.740;2024-02-28T14:09:40;0.40;;;0.40;;
51451;SDS011;37521;52.020;-1.740;2024-02-28T14:12:09;0.60;;;0.60;;
51451;SDS011;37521;52.020;-1.740;2024-02-28T14:14:38;0.60;;;0.52;;
51451;SDS011;37521;52.020;-1.740;2024-02-28T14:17:07;0.40;;;0.40;;
51451;SDS011;37521;52.020;-1.740;2024-02-28T14:19:36;1.65;;;0.28;;
51451;SDS011;37521;52.020;-1.740;2024-02-28T14:22:04;0.57;;;0.30;;
51451;SDS011;37521;52.020;-1.740;2024-02-28T14:24:38;0.70;;;0.47;;
51451;SDS011;37521;52.020;-1.740;2024-02-28T14:27:06;0.68;;;0.63;;
51451;SDS011;37521;52.020;-1.740;2024-02-28T14:29:36;0.70;;;0.55;;
51451;SDS011;37521;52.020;-1.740;2024-02-28T14:32:05;0.75;;;0.73;;
51451;SDS011;37521;52.020;-1.740;2024-02-28T14:34:35;1.23;;;0.32;;
51451;SDS011;37521;52.020;-1.740;2024-02-28T14:37:03;0.73;;;0.73;;
51451;SDS011;37521;52.020;-1.740;2024-02-28T14:39:32;1.08;;;0.77;;
51451;SDS011;37521;52.020;-1.740;2024-02-28T14:42:02;0.93;;;0.68;;
51451;SDS011;37521;52.020;-1.740;2024-02-28T14:44:31;1.52;;;0.55;;
51451;SDS011;37521;52.020;-1.740;2024-02-28T14:47:00;0.73;;;0.60;;